sensor_id;sensor_type;location;lat;lon;timestamp;temperature;humidity
36002;DHT22;22070;50.922;5.430;2023-09-08T00:01:19;19.90;99.90
36002;DHT22;22070;50.922;5.430;2023-09-08T00:03:45;19.90;99.90
36002;DHT22;22070;50.922;5.430;2023-09-08T00:06:10;19.80;99.90
36002;DHT22;22070;50.922;5.430;2023-09-08T00:08:36;19.80;99.90
36002;DHT22;22070;50.922;5.430;2023-09-08T00:11:02;19.80;99.90
36002;DHT22;22070;50.922;5.430;2023-09-08T00:13:27;19.80;99.90
36002;DHT22;22070;50.922;5.430;2023-09-08T00:15:53;19.70;99.90
36002;DHT22;22070;50.922;5.430;2023-09-08T00:18:19;19.60;99.90
36002;DHT22;22070;50.922;5.430;2023-09-08T00:20:44;19.60;99.90
36002;DHT22;22070;50.922;5.430;2023-09-08T00:23:10;19.50;99.90
36002;DHT22;22070;50.922;5.430;2023-09-08T00:25:35;19.40;99.90
36002;DHT22;22070;50.922;5.430;2023-09-08T00:28:01;19.40;99.90
36002;DHT22;22070;50.922;5.430;2023-09-08T00:30:28;19.40;99.90
36002;DHT22;22070;50.922;5.430;2023-09-08T00:32:54;19.30;99.90
36002;DHT22;22070;50.922;5.430;2023-09-08T00:35:20;19.40;99.90
36002;DHT22;22070;50.922;5.430;2023-09-08T00:37:45;19.40;99.90
36002;DHT22;22070;50.922;5.430;2023-09-08T00:40:11;19.40;99.90
36002;DHT22;22070;50.922;5.430;2023-09-08T00:42:37;19.40;99.90
36002;DHT22;22070;50.922;5.430;2023-09-08T00:45:03;19.30;99.90
36002;DHT22;22070;50.922;5.430;2023-09-08T00:47:29;19.40;99.90
36002;DHT22;22070;50.922;5.430;2023-09-08T00:49:54;19.40;99.90
36002;DHT22;22070;50.922;5.430;2023-09-08T00:52:21;19.20;99.90
36002;DHT22;22070;50.922;5.430;2023-09-08T00:54:46;19.20;99.90
36002;DHT22;22070;50.922;5.430;2023-09-08T00:57:12;19.10;99.90
36002;DHT22;22070;50.922;5.430;2023-09-08T00:59:38;19.00;99.90
36002;DHT22;22070;50.922;5.430;2023-09-08T01:02:05;19.10;99.90
36002;DHT22;22070;50.922;5.430;2023-09-08T01:04:30;19.10;99.90
36002;DHT22;22070;50.922;5.430;2023-09-08T01:06:58;19.10;99.90
36002;DHT22;22070;50.922;5.430;2023-09-08T01:09:24;19.10;99.90
36002;DHT22;22070;50.922;5.430;2023-09-08T01:11:50;19.10;99.90
36002;DHT22;22070;50.922;5.430;2023-09-08T01:14:19;19.00;99.90
36002;DHT22;22070;50.922;5.430;2023-09-08T01:16:45;18.90;99.90
36002;DHT22;22070;50.922;5.430;2023-09-08T01:19:14;18.80;99.90
36002;DHT22;22070;50.922;5.430;2023-09-08T01:26:53;18.80;99.90
36002;DHT22;22070;50.922;5.430;2023-09-08T01:29:19;18.80;99.90
36002;DHT22;22070;50.922;5.430;2023-09-08T01:31:45;18.70;99.90
36002;DHT22;22070;50.922;5.430;2023-09-08T01:34:12;18.70;99.90
36002;DHT22;22070;50.922;5.430;2023-09-08T01:36:38;18.70;99.90
36002;DHT22;22070;50.922;5.430;2023-09-08T01:39:04;18.70;99.90
36002;DHT22;22070;50.922;5.430;2023-09-08T01:41:30;18.60;99.90
36002;DHT22;22070;50.922;5.430;2023-09-08T01:43:56;18.60;99.90
36002;DHT22;22070;50.922;5.430;2023-09-08T01:46:23;18.60;99.90
36002;DHT22;22070;50.922;5.430;2023-09-08T01:48:49;18.60;99.90
36002;DHT22;22070;50.922;5.430;2023-09-08T01:51:14;18.60;99.90
36002;DHT22;22070;50.922;5.430;2023-09-08T01:53:40;18.70;99.90
36002;DHT22;22070;50.922;5.430;2023-09-08T01:56:05;18.80;99.90
36002;DHT22;22070;50.922;5.430;2023-09-08T01:58:31;18.80;99.90
36002;DHT22;22070;50.922;5.430;2023-09-08T02:00:59;18.70;99.90
36002;DHT22;22070;50.922;5.430;2023-09-08T02:03:33;18.60;99.90
36002;DHT22;22070;50.922;5.430;2023-09-08T02:05:59;18.60;99.90
36002;DHT22;22070;50.922;5.430;2023-09-08T02:08:25;18.50;99.90
36002;DHT22;22070;50.922;5.430;2023-09-08T02:10:50;18.30;99.90
36002;DHT22;22070;50.922;5.430;2023-09-08T02:13:16;18.40;99.90
36002;DHT22;22070;50.922;5.430;2023-09-08T02:15:42;18.40;99.90
36002;DHT22;22070;50.922;5.430;2023-09-08T02:18:07;18.40;99.90
36002;DHT22;22070;50.922;5.430;2023-09-08T02:20:33;18.50;99.90
36002;DHT22;22070;50.922;5.430;2023-09-08T02:23:05;18.50;99.90
36002;DHT22;22070;50.922;5.430;2023-09-08T02:25:31;18.50;99.90
36002;DHT22;22070;50.922;5.430;2023-09-08T02:27:56;18.40;99.90
36002;DHT22;22070;50.922;5.430;2023-09-08T02:30:22;18.40;99.90
36002;DHT22;22070;50.922;5.430;2023-09-08T02:32:47;18.60;99.90
36002;DHT22;22070;50.922;5.430;2023-09-08T02:35:13;18.60;99.90
36002;DHT22;22070;50.922;5.430;2023-09-08T02:37:39;18.40;99.90
36002;DHT22;22070;50.922;5.430;2023-09-08T02:40:06;18.40;99.90
36002;DHT22;22070;50.922;5.430;2023-09-08T02:42:32;18.40;99.90
36002;DHT22;22070;50.922;5.430;2023-09-08T02:44:57;18.30;99.90
36002;DHT22;22070;50.922;5.430;2023-09-08T02:47:23;18.20;99.90
36002;DHT22;22070;50.922;5.430;2023-09-08T02:49:48;18.20;99.90
36002;DHT22;22070;50.922;5.430;2023-09-08T02:52:14;18.20;99.90
36002;DHT22;22070;50.922;5.430;2023-09-08T02:54:40;18.20;99.90
36002;DHT22;22070;50.922;5.430;2023-09-08T02:57:06;18.10;99.90
36002;DHT22;22070;50.922;5.430;2023-09-08T02:59:31;18.10;99.90
36002;DHT22;22070;50.922;5.430;2023-09-08T03:01:59;18.10;99.90
36002;DHT22;22070;50.922;5.430;2023-09-08T03:04:25;18.10;99.90
36002;DHT22;22070;50.922;5.430;2023-09-08T03:06:50;18.10;99.90
36002;DHT22;22070;50.922;5.430;2023-09-08T03:09:16;18.20;99.90
36002;DHT22;22070;50.922;5.430;2023-09-08T03:11:42;18.20;99.90
36002;DHT22;22070;50.922;5.430;2023-09-08T03:14:07;18.20;99.90
36002;DHT22;22070;50.922;5.430;2023-09-08T03:16:33;18.30;99.90
36002;DHT22;22070;50.922;5.430;2023-09-08T03:18:59;18.30;99.90
36002;DHT22;22070;50.922;5.430;2023-09-08T03:21:24;18.30;99.90
36002;DHT22;22070;50.922;5.430;2023-09-08T03:23:50;18.20;99.90
36002;DHT22;22070;50.922;5.430;2023-09-08T03:26:16;18.10;99.90
36002;DHT22;22070;50.922;5.430;2023-09-08T03:28:42;18.10;99.90
36002;DHT22;22070;50.922;5.430;2023-09-08T03:31:08;18.20;99.90
36002;DHT22;22070;50.922;5.430;2023-09-08T03:33:34;18.10;99.90
36002;DHT22;22070;50.922;5.430;2023-09-08T03:36:00;18.10;99.90
36002;DHT22;22070;50.922;5.430;2023-09-08T03:38:26;18.10;99.90
36002;DHT22;22070;50.922;5.430;2023-09-08T03:40:52;18.10;99.90
36002;DHT22;22070;50.922;5.430;2023-09-08T03:43:18;18.00;99.90
36002;DHT22;22070;50.922;5.430;2023-09-08T03:45:43;18.10;99.90
36002;DHT22;22070;50.922;5.430;2023-09-08T03:48:09;18.00;99.90
36002;DHT22;22070;50.922;5.430;2023-09-08T03:50:35;18.00;99.90
36002;DHT22;22070;50.922;5.430;2023-09-08T03:53:01;18.00;99.90
36002;DHT22;22070;50.922;5.430;2023-09-08T03:55:27;18.10;99.90
36002;DHT22;22070;50.922;5.430;2023-09-08T03:57:52;18.00;99.90
36002;DHT22;22070;50.922;5.430;2023-09-08T04:00:18;18.00;99.90
36002;DHT22;22070;50.922;5.430;2023-09-08T04:02:47;17.90;99.90
36002;DHT22;22070;50.922;5.430;2023-09-08T04:05:13;17.80;99.90
36002;DHT22;22070;50.922;5.430;2023-09-08T04:07:38;17.70;99.90
36002;DHT22;22070;50.922;5.430;2023-09-08T04:10:04;17.90;99.90
36002;DHT22;22070;50.922;5.430;2023-09-08T04:12:30;17.90;99.90
36002;DHT22;22070;50.922;5.430;2023-09-08T04:14:56;17.90;99.90
36002;DHT22;22070;50.922;5.430;2023-09-08T04:17:21;18.00;99.90
36002;DHT22;22070;50.922;5.430;2023-09-08T04:19:47;17.80;99.90
36002;DHT22;22070;50.922;5.430;2023-09-08T04:22:13;17.70;99.90
36002;DHT22;22070;50.922;5.430;2023-09-08T04:24:38;17.70;99.90
36002;DHT22;22070;50.922;5.430;2023-09-08T04:27:04;17.70;99.90
36002;DHT22;22070;50.922;5.430;2023-09-08T04:29:30;17.70;99.90
36002;DHT22;22070;50.922;5.430;2023-09-08T04:31:55;17.80;99.90
36002;DHT22;22070;50.922;5.430;2023-09-08T04:34:21;17.90;99.90
36002;DHT22;22070;50.922;5.430;2023-09-08T04:36:47;18.00;99.90
36002;DHT22;22070;50.922;5.430;2023-09-08T04:39:12;18.00;99.90
36002;DHT22;22070;50.922;5.430;2023-09-08T04:41:40;17.80;99.90
36002;DHT22;22070;50.922;5.430;2023-09-08T04:44:06;17.90;99.90
36002;DHT22;22070;50.922;5.430;2023-09-08T04:46:31;18.00;99.90
36002;DHT22;22070;50.922;5.430;2023-09-08T04:48:57;17.80;99.90
36002;DHT22;22070;50.922;5.430;2023-09-08T04:51:23;17.60;99.90
36002;DHT22;22070;50.922;5.430;2023-09-08T04:53:48;17.70;99.90
36002;DHT22;22070;50.922;5.430;2023-09-08T04:56:14;17.70;99.90
36002;DHT22;22070;50.922;5.430;2023-09-08T04:58:40;17.70;99.90
36002;DHT22;22070;50.922;5.430;2023-09-08T05:01:05;17.60;99.90
36002;DHT22;22070;50.922;5.430;2023-09-08T05:03:31;17.60;99.90
36002;DHT22;22070;50.922;5.430;2023-09-08T05:05:57;17.50;99.90
36002;DHT22;22070;50.922;5.430;2023-09-08T05:08:22;17.50;99.90
36002;DHT22;22070;50.922;5.430;2023-09-08T05:10:48;17.60;99.90
36002;DHT22;22070;50.922;5.430;2023-09-08T05:15:39;17.50;99.90
36002;DHT22;22070;50.922;5.430;2023-09-08T05:18:07;17.50;99.90
36002;DHT22;22070;50.922;5.430;2023-09-08T05:20:33;17.40;99.90
36002;DHT22;22070;50.922;5.430;2023-09-08T05:22:59;17.50;99.90
36002;DHT22;22070;50.922;5.430;2023-09-08T05:25:24;17.50;99.90
36002;DHT22;22070;50.922;5.430;2023-09-08T05:27:50;17.50;99.90
36002;DHT22;22070;50.922;5.430;2023-09-08T05:30:16;17.50;99.90
36002;DHT22;22070;50.922;5.430;2023-09-08T05:32:41;17.40;99.90
36002;DHT22;22070;50.922;5.430;2023-09-08T05:35:07;17.40;99.90
36002;DHT22;22070;50.922;5.430;2023-09-08T05:37:33;17.50;99.90
36002;DHT22;22070;50.922;5.430;2023-09-08T05:39:58;17.50;99.90
36002;DHT22;22070;50.922;5.430;2023-09-08T05:42:24;17.40;99.90
36002;DHT22;22070;50.922;5.430;2023-09-08T05:44:49;17.60;99.90
36002;DHT22;22070;50.922;5.430;2023-09-08T05:47:15;17.60;99.90
36002;DHT22;22070;50.922;5.430;2023-09-08T05:49:41;17.60;99.90
36002;DHT22;22070;50.922;5.430;2023-09-08T05:52:06;17.70;99.90
36002;DHT22;22070;50.922;5.430;2023-09-08T05:54:32;17.80;99.90
36002;DHT22;22070;50.922;5.430;2023-09-08T05:56:58;17.80;99.90
36002;DHT22;22070;50.922;5.430;2023-09-08T05:59:23;17.80;99.90
36002;DHT22;22070;50.922;5.430;2023-09-08T06:01:49;17.90;99.90
36002;DHT22;22070;50.922;5.430;2023-09-08T06:04:14;17.90;99.90
36002;DHT22;22070;50.922;5.430;2023-09-08T06:06:40;18.00;99.90
36002;DHT22;22070;50.922;5.430;2023-09-08T06:09:06;18.00;99.90
36002;DHT22;22070;50.922;5.430;2023-09-08T06:11:34;18.10;99.90
36002;DHT22;22070;50.922;5.430;2023-09-08T06:14:00;18.20;99.90
36002;DHT22;22070;50.922;5.430;2023-09-08T06:16:26;18.20;99.90
36002;DHT22;22070;50.922;5.430;2023-09-08T06:18:51;18.30;99.90
36002;DHT22;22070;50.922;5.430;2023-09-08T06:21:17;18.30;99.90
36002;DHT22;22070;50.922;5.430;2023-09-08T06:23:43;18.30;99.90
36002;DHT22;22070;50.922;5.430;2023-09-08T06:26:08;18.40;99.90
36002;DHT22;22070;50.922;5.430;2023-09-08T06:28:34;18.50;99.90
36002;DHT22;22070;50.922;5.430;2023-09-08T06:31:00;18.60;99.90
36002;DHT22;22070;50.922;5.430;2023-09-08T06:33:26;18.70;99.90
36002;DHT22;22070;50.922;5.430;2023-09-08T06:35:52;18.80;99.90
36002;DHT22;22070;50.922;5.430;2023-09-08T06:38:19;18.90;99.90
36002;DHT22;22070;50.922;5.430;2023-09-08T06:40:45;18.90;99.90
36002;DHT22;22070;50.922;5.430;2023-09-08T06:43:10;19.00;99.90
36002;DHT22;22070;50.922;5.430;2023-09-08T06:45:39;19.10;99.90
36002;DHT22;22070;50.922;5.430;2023-09-08T06:48:07;19.20;99.90
36002;DHT22;22070;50.922;5.430;2023-09-08T06:50:33;19.30;99.90
36002;DHT22;22070;50.922;5.430;2023-09-08T06:52:59;19.40;99.90
36002;DHT22;22070;50.922;5.430;2023-09-08T06:55:26;19.50;99.90
36002;DHT22;22070;50.922;5.430;2023-09-08T06:57:51;19.50;99.90
36002;DHT22;22070;50.922;5.430;2023-09-08T07:00:17;19.60;99.90
36002;DHT22;22070;50.922;5.430;2023-09-08T07:02:43;19.70;99.90
36002;DHT22;22070;50.922;5.430;2023-09-08T07:05:08;19.80;99.90
36002;DHT22;22070;50.922;5.430;2023-09-08T07:07:35;19.80;99.90
36002;DHT22;22070;50.922;5.430;2023-09-08T07:10:02;19.90;99.90
36002;DHT22;22070;50.922;5.430;2023-09-08T07:12:28;20.00;99.90
36002;DHT22;22070;50.922;5.430;2023-09-08T07:14:53;20.10;99.90
36002;DHT22;22070;50.922;5.430;2023-09-08T07:17:19;20.20;99.90
36002;DHT22;22070;50.922;5.430;2023-09-08T07:19:45;20.30;99.90
36002;DHT22;22070;50.922;5.430;2023-09-08T07:22:10;20.40;99.90
36002;DHT22;22070;50.922;5.430;2023-09-08T07:24:36;20.40;99.90
36002;DHT22;22070;50.922;5.430;2023-09-08T07:27:02;20.50;99.90
36002;DHT22;22070;50.922;5.430;2023-09-08T07:29:28;20.70;99.90
36002;DHT22;22070;50.922;5.430;2023-09-08T07:31:53;20.80;99.90
36002;DHT22;22070;50.922;5.430;2023-09-08T07:34:19;20.90;99.90
36002;DHT22;22070;50.922;5.430;2023-09-08T07:36:44;20.90;99.90
36002;DHT22;22070;50.922;5.430;2023-09-08T07:39:10;21.00;99.90
36002;DHT22;22070;50.922;5.430;2023-09-08T07:41:36;21.10;99.90
36002;DHT22;22070;50.922;5.430;2023-09-08T07:44:04;21.10;99.90
36002;DHT22;22070;50.922;5.430;2023-09-08T07:46:30;21.20;99.90
36002;DHT22;22070;50.922;5.430;2023-09-08T07:48:58;21.30;99.90
36002;DHT22;22070;50.922;5.430;2023-09-08T07:51:24;21.50;99.90
36002;DHT22;22070;50.922;5.430;2023-09-08T07:53:50;21.60;99.90
36002;DHT22;22070;50.922;5.430;2023-09-08T07:56:16;21.60;99.90
36002;DHT22;22070;50.922;5.430;2023-09-08T07:58:41;21.70;99.90
36002;DHT22;22070;50.922;5.430;2023-09-08T08:01:07;21.80;99.90
36002;DHT22;22070;50.922;5.430;2023-09-08T08:03:33;21.90;99.90
36002;DHT22;22070;50.922;5.430;2023-09-08T08:06:00;21.90;99.90
36002;DHT22;22070;50.922;5.430;2023-09-08T08:08:26;22.10;99.90
36002;DHT22;22070;50.922;5.430;2023-09-08T08:10:52;22.20;99.90
36002;DHT22;22070;50.922;5.430;2023-09-08T08:13:17;22.30;99.90
36002;DHT22;22070;50.922;5.430;2023-09-08T08:15:45;22.40;99.90
36002;DHT22;22070;50.922;5.430;2023-09-08T08:18:15;22.40;99.90
36002;DHT22;22070;50.922;5.430;2023-09-08T08:20:40;22.40;99.90
36002;DHT22;22070;50.922;5.430;2023-09-08T08:23:07;22.50;99.90
36002;DHT22;22070;50.922;5.430;2023-09-08T08:25:33;22.70;99.90
36002;DHT22;22070;50.922;5.430;2023-09-08T08:27:59;22.70;99.90
36002;DHT22;22070;50.922;5.430;2023-09-08T08:30:26;22.80;99.90
36002;DHT22;22070;50.922;5.430;2023-09-08T08:32:52;22.90;99.90
36002;DHT22;22070;50.922;5.430;2023-09-08T08:35:21;23.00;99.90
36002;DHT22;22070;50.922;5.430;2023-09-08T08:37:46;23.00;99.90
36002;DHT22;22070;50.922;5.430;2023-09-08T08:40:12;23.10;99.90
36002;DHT22;22070;50.922;5.430;2023-09-08T08:42:39;23.30;99.90
36002;DHT22;22070;50.922;5.430;2023-09-08T08:45:05;23.30;99.90
36002;DHT22;22070;50.922;5.430;2023-09-08T08:47:31;23.30;99.90
36002;DHT22;22070;50.922;5.430;2023-09-08T08:49:58;23.40;99.90
36002;DHT22;22070;50.922;5.430;2023-09-08T08:52:26;23.50;99.90
36002;DHT22;22070;50.922;5.430;2023-09-08T08:54:52;23.60;99.90
36002;DHT22;22070;50.922;5.430;2023-09-08T08:57:18;23.70;99.90
36002;DHT22;22070;50.922;5.430;2023-09-08T08:59:44;23.70;99.90
36002;DHT22;22070;50.922;5.430;2023-09-08T09:02:12;23.90;99.90
36002;DHT22;22070;50.922;5.430;2023-09-08T09:04:38;23.90;99.90
36002;DHT22;22070;50.922;5.430;2023-09-08T09:07:06;24.00;99.90
36002;DHT22;22070;50.922;5.430;2023-09-08T09:09:32;24.00;99.90
36002;DHT22;22070;50.922;5.430;2023-09-08T09:11:58;24.10;99.90
36002;DHT22;22070;50.922;5.430;2023-09-08T09:14:23;24.10;99.90
36002;DHT22;22070;50.922;5.430;2023-09-08T09:16:50;24.20;99.90
36002;DHT22;22070;50.922;5.430;2023-09-08T09:19:21;24.30;99.90
36002;DHT22;22070;50.922;5.430;2023-09-08T09:21:51;24.30;99.90
36002;DHT22;22070;50.922;5.430;2023-09-08T09:24:35;24.30;99.90
36002;DHT22;22070;50.922;5.430;2023-09-08T09:27:04;24.40;99.90
36002;DHT22;22070;50.922;5.430;2023-09-08T09:29:31;24.50;99.90
36002;DHT22;22070;50.922;5.430;2023-09-08T09:32:02;24.50;99.90
36002;DHT22;22070;50.922;5.430;2023-09-08T09:34:29;24.60;99.90
36002;DHT22;22070;50.922;5.430;2023-09-08T09:36:55;24.80;99.90
36002;DHT22;22070;50.922;5.430;2023-09-08T09:39:22;24.80;99.90
36002;DHT22;22070;50.922;5.430;2023-09-08T09:41:49;24.80;99.90
36002;DHT22;22070;50.922;5.430;2023-09-08T09:44:18;24.90;99.90
36002;DHT22;22070;50.922;5.430;2023-09-08T09:46:45;25.00;99.90
36002;DHT22;22070;50.922;5.430;2023-09-08T09:49:12;25.10;99.90
36002;DHT22;22070;50.922;5.430;2023-09-08T09:51:49;25.10;99.90
36002;DHT22;22070;50.922;5.430;2023-09-08T09:54:18;25.20;99.90
36002;DHT22;22070;50.922;5.430;2023-09-08T09:56:44;25.20;99.90
36002;DHT22;22070;50.922;5.430;2023-09-08T09:59:11;25.30;99.90
36002;DHT22;22070;50.922;5.430;2023-09-08T10:01:39;25.30;99.90
36002;DHT22;22070;50.922;5.430;2023-09-08T10:04:05;25.40;99.90
36002;DHT22;22070;50.922;5.430;2023-09-08T10:06:35;25.50;99.90
36002;DHT22;22070;50.922;5.430;2023-09-08T10:09:03;25.50;99.90
36002;DHT22;22070;50.922;5.430;2023-09-08T10:11:35;25.60;99.90
36002;DHT22;22070;50.922;5.430;2023-09-08T10:14:04;25.60;99.90
36002;DHT22;22070;50.922;5.430;2023-09-08T10:16:35;25.70;99.90
36002;DHT22;22070;50.922;5.430;2023-09-08T10:19:04;25.70;99.90
36002;DHT22;22070;50.922;5.430;2023-09-08T10:21:33;25.80;99.90
36002;DHT22;22070;50.922;5.430;2023-09-08T10:24:26;25.80;99.90
36002;DHT22;22070;50.922;5.430;2023-09-08T10:27:03;25.90;99.90
36002;DHT22;22070;50.922;5.430;2023-09-08T10:29:30;25.90;99.90
36002;DHT22;22070;50.922;5.430;2023-09-08T10:31:57;26.00;99.90
36002;DHT22;22070;50.922;5.430;2023-09-08T10:34:23;26.00;99.90
36002;DHT22;22070;50.922;5.430;2023-09-08T10:36:49;26.00;99.90
36002;DHT22;22070;50.922;5.430;2023-09-08T10:39:42;26.10;99.90
36002;DHT22;22070;50.922;5.430;2023-09-08T10:47:26;26.70;99.90
36002;DHT22;22070;50.922;5.430;2023-09-08T10:49:56;27.20;99.90
36002;DHT22;22070;50.922;5.430;2023-09-08T10:52:24;27.20;99.90
36002;DHT22;22070;50.922;5.430;2023-09-08T10:54:53;27.30;99.90
36002;DHT22;22070;50.922;5.430;2023-09-08T10:57:21;27.30;99.90
36002;DHT22;22070;50.922;5.430;2023-09-08T10:59:58;27.40;99.90
36002;DHT22;22070;50.922;5.430;2023-09-08T11:02:39;27.70;99.90
36002;DHT22;22070;50.922;5.430;2023-09-08T11:05:12;27.60;99.90
36002;DHT22;22070;50.922;5.430;2023-09-08T11:07:40;27.80;99.90
36002;DHT22;22070;50.922;5.430;2023-09-08T11:10:06;27.70;99.90
36002;DHT22;22070;50.922;5.430;2023-09-08T11:12:33;27.80;99.90
36002;DHT22;22070;50.922;5.430;2023-09-08T11:15:00;27.90;99.90
36002;DHT22;22070;50.922;5.430;2023-09-08T11:17:31;27.90;99.90
36002;DHT22;22070;50.922;5.430;2023-09-08T11:19:57;28.00;99.90
36002;DHT22;22070;50.922;5.430;2023-09-08T11:22:26;27.90;99.90
36002;DHT22;22070;50.922;5.430;2023-09-08T11:24:52;28.10;99.90
36002;DHT22;22070;50.922;5.430;2023-09-08T11:27:19;28.20;99.90
36002;DHT22;22070;50.922;5.430;2023-09-08T11:29:46;28.10;99.90
36002;DHT22;22070;50.922;5.430;2023-09-08T11:32:12;28.40;99.90
36002;DHT22;22070;50.922;5.430;2023-09-08T11:34:38;28.40;99.90
36002;DHT22;22070;50.922;5.430;2023-09-08T11:37:11;28.50;99.90
36002;DHT22;22070;50.922;5.430;2023-09-08T11:39:42;28.50;99.90
36002;DHT22;22070;50.922;5.430;2023-09-08T11:42:08;28.50;99.90
36002;DHT22;22070;50.922;5.430;2023-09-08T11:44:35;28.60;99.90
36002;DHT22;22070;50.922;5.430;2023-09-08T11:47:02;28.60;99.90
36002;DHT22;22070;50.922;5.430;2023-09-08T11:49:40;28.70;99.90
36002;DHT22;22070;50.922;5.430;2023-09-08T11:52:06;28.70;99.90
36002;DHT22;22070;50.922;5.430;2023-09-08T11:54:32;28.60;99.90
36002;DHT22;22070;50.922;5.430;2023-09-08T11:57:00;28.60;99.90
36002;DHT22;22070;50.922;5.430;2023-09-08T11:59:28;28.50;99.90
36002;DHT22;22070;50.922;5.430;2023-09-08T12:01:55;28.60;99.90
36002;DHT22;22070;50.922;5.430;2023-09-08T12:04:22;28.70;99.90
36002;DHT22;22070;50.922;5.430;2023-09-08T12:06:48;28.80;99.90
36002;DHT22;22070;50.922;5.430;2023-09-08T12:09:15;28.80;99.90
36002;DHT22;22070;50.922;5.430;2023-09-08T12:11:42;28.90;99.90
36002;DHT22;22070;50.922;5.430;2023-09-08T12:14:11;28.90;99.90
36002;DHT22;22070;50.922;5.430;2023-09-08T12:16:36;28.90;99.90
36002;DHT22;22070;50.922;5.430;2023-09-08T12:19:02;28.90;99.90
36002;DHT22;22070;50.922;5.430;2023-09-08T12:21:28;28.90;99.90
36002;DHT22;22070;50.922;5.430;2023-09-08T12:23:54;29.00;99.90
36002;DHT22;22070;50.922;5.430;2023-09-08T12:26:20;29.10;99.90
36002;DHT22;22070;50.922;5.430;2023-09-08T12:28:46;29.10;99.90
36002;DHT22;22070;50.922;5.430;2023-09-08T12:31:17;29.10;99.90
36002;DHT22;22070;50.922;5.430;2023-09-08T12:33:43;29.30;99.90
36002;DHT22;22070;50.922;5.430;2023-09-08T12:36:14;29.40;99.90
36002;DHT22;22070;50.922;5.430;2023-09-08T12:38:40;29.40;99.90
36002;DHT22;22070;50.922;5.430;2023-09-08T12:41:06;29.40;99.90
36002;DHT22;22070;50.922;5.430;2023-09-08T12:43:31;29.40;99.90
36002;DHT22;22070;50.922;5.430;2023-09-08T12:45:57;29.40;99.90
36002;DHT22;22070;50.922;5.430;2023-09-08T12:48:23;29.60;99.90
36002;DHT22;22070;50.922;5.430;2023-09-08T12:50:49;29.50;99.90
36002;DHT22;22070;50.922;5.430;2023-09-08T12:53:15;29.40;99.90
36002;DHT22;22070;50.922;5.430;2023-09-08T12:55:43;29.50;99.90
36002;DHT22;22070;50.922;5.430;2023-09-08T12:58:08;29.60;99.90
36002;DHT22;22070;50.922;5.430;2023-09-08T13:00:34;29.60;99.90
36002;DHT22;22070;50.922;5.430;2023-09-08T13:03:01;29.60;99.90
36002;DHT22;22070;50.922;5.430;2023-09-08T13:05:27;29.70;99.90
36002;DHT22;22070;50.922;5.430;2023-09-08T13:07:53;29.70;99.90
36002;DHT22;22070;50.922;5.430;2023-09-08T13:10:19;29.70;99.90
36002;DHT22;22070;50.922;5.430;2023-09-08T13:12:45;29.70;99.90
36002;DHT22;22070;50.922;5.430;2023-09-08T13:15:11;29.70;99.90
36002;DHT22;22070;50.922;5.430;2023-09-08T13:17:37;29.90;99.90
36002;DHT22;22070;50.922;5.430;2023-09-08T13:20:03;29.90;99.90
36002;DHT22;22070;50.922;5.430;2023-09-08T13:22:29;30.00;99.90
36002;DHT22;22070;50.922;5.430;2023-09-08T13:24:55;30.00;99.90
36002;DHT22;22070;50.922;5.430;2023-09-08T13:27:20;30.00;99.90
36002;DHT22;22070;50.922;5.430;2023-09-08T13:29:46;30.10;99.90
36002;DHT22;22070;50.922;5.430;2023-09-08T13:32:12;30.10;99.90
36002;DHT22;22070;50.922;5.430;2023-09-08T13:34:37;30.20;99.90
36002;DHT22;22070;50.922;5.430;2023-09-08T13:37:04;30.10;99.90
36002;DHT22;22070;50.922;5.430;2023-09-08T13:39:29;30.30;99.90
36002;DHT22;22070;50.922;5.430;2023-09-08T13:41:58;30.40;99.90
36002;DHT22;22070;50.922;5.430;2023-09-08T13:44:24;30.30;99.90
36002;DHT22;22070;50.922;5.430;2023-09-08T13:46:51;30.30;99.90
36002;DHT22;22070;50.922;5.430;2023-09-08T13:49:17;30.40;99.90
36002;DHT22;22070;50.922;5.430;2023-09-08T13:51:43;30.60;99.90
36002;DHT22;22070;50.922;5.430;2023-09-08T13:54:10;30.50;99.90
36002;DHT22;22070;50.922;5.430;2023-09-08T13:56:38;30.60;99.90
36002;DHT22;22070;50.922;5.430;2023-09-08T13:59:05;30.70;99.90
36002;DHT22;22070;50.922;5.430;2023-09-08T14:01:33;30.80;99.90
36002;DHT22;22070;50.922;5.430;2023-09-08T14:03:59;30.90;99.90
36002;DHT22;22070;50.922;5.430;2023-09-08T14:06:26;31.00;99.90
36002;DHT22;22070;50.922;5.430;2023-09-08T14:08:52;31.10;99.90
36002;DHT22;22070;50.922;5.430;2023-09-08T14:11:17;31.10;99.90
36002;DHT22;22070;50.922;5.430;2023-09-08T14:13:43;31.20;99.90
36002;DHT22;22070;50.922;5.430;2023-09-08T14:16:10;31.10;99.90
36002;DHT22;22070;50.922;5.430;2023-09-08T14:18:36;31.20;99.90
36002;DHT22;22070;50.922;5.430;2023-09-08T14:21:01;31.40;99.90
36002;DHT22;22070;50.922;5.430;2023-09-08T14:23:28;31.50;99.90
36002;DHT22;22070;50.922;5.430;2023-09-08T14:25:54;31.60;99.90
36002;DHT22;22070;50.922;5.430;2023-09-08T14:28:20;31.70;99.90
36002;DHT22;22070;50.922;5.430;2023-09-08T14:30:46;31.80;99.90
36002;DHT22;22070;50.922;5.430;2023-09-08T14:33:12;32.00;99.90
36002;DHT22;22070;50.922;5.430;2023-09-08T14:35:41;32.10;99.90
36002;DHT22;22070;50.922;5.430;2023-09-08T14:38:08;32.10;99.90
36002;DHT22;22070;50.922;5.430;2023-09-08T14:40:34;32.20;99.90
36002;DHT22;22070;50.922;5.430;2023-09-08T14:42:59;32.20;99.90
36002;DHT22;22070;50.922;5.430;2023-09-08T14:45:25;32.20;99.90
36002;DHT22;22070;50.922;5.430;2023-09-08T14:47:52;32.20;99.90
36002;DHT22;22070;50.922;5.430;2023-09-08T14:50:19;32.30;99.90
36002;DHT22;22070;50.922;5.430;2023-09-08T14:52:44;32.50;99.90
36002;DHT22;22070;50.922;5.430;2023-09-08T14:55:10;32.50;99.90
36002;DHT22;22070;50.922;5.430;2023-09-08T14:57:36;32.40;99.90
36002;DHT22;22070;50.922;5.430;2023-09-08T15:00:03;32.50;99.90
36002;DHT22;22070;50.922;5.430;2023-09-08T15:02:33;32.70;99.90
36002;DHT22;22070;50.922;5.430;2023-09-08T15:04:58;32.80;99.90
36002;DHT22;22070;50.922;5.430;2023-09-08T15:07:24;32.90;99.90
36002;DHT22;22070;50.922;5.430;2023-09-08T15:09:50;33.10;99.90
36002;DHT22;22070;50.922;5.430;2023-09-08T15:12:16;33.00;99.90
36002;DHT22;22070;50.922;5.430;2023-09-08T15:14:42;32.80;99.90
36002;DHT22;22070;50.922;5.430;2023-09-08T15:17:08;32.90;99.90
36002;DHT22;22070;50.922;5.430;2023-09-08T15:19:33;33.00;99.90
36002;DHT22;22070;50.922;5.430;2023-09-08T15:21:59;33.30;99.90
36002;DHT22;22070;50.922;5.430;2023-09-08T15:24:25;33.70;99.90
36002;DHT22;22070;50.922;5.430;2023-09-08T15:26:50;33.80;99.90
36002;DHT22;22070;50.922;5.430;2023-09-08T15:29:16;34.00;99.90
36002;DHT22;22070;50.922;5.430;2023-09-08T15:31:42;34.00;99.90
36002;DHT22;22070;50.922;5.430;2023-09-08T15:34:08;33.90;99.90
36002;DHT22;22070;50.922;5.430;2023-09-08T15:36:35;33.90;99.90
36002;DHT22;22070;50.922;5.430;2023-09-08T15:39:00;33.80;99.90